sensor_id;sensor_type;location;lat;lon;timestamp;temperature;humidity
11536;DHT22;5824;49.336;8.652;2023-01-25T00:00:09;4.80;1.00
11536;DHT22;5824;49.336;8.652;2023-01-25T00:02:35;4.90;1.00
11536;DHT22;5824;49.336;8.652;2023-01-25T00:05:00;4.80;1.00
11536;DHT22;5824;49.336;8.652;2023-01-25T00:07:26;4.90;1.00
11536;DHT22;5824;49.336;8.652;2023-01-25T00:09:52;4.90;1.00
11536;DHT22;5824;49.336;8.652;2023-01-25T00:12:17;4.90;1.00
11536;DHT22;5824;49.336;8.652;2023-01-25T00:14:44;4.90;1.00
11536;DHT22;5824;49.336;8.652;2023-01-25T00:17:09;4.90;1.00
11536;DHT22;5824;49.336;8.652;2023-01-25T00:19:35;4.80;1.00
11536;DHT22;5824;49.336;8.652;2023-01-25T00:22:00;4.80;1.00
11536;DHT22;5824;49.336;8.652;2023-01-25T00:24:26;4.70;1.00
11536;DHT22;5824;49.336;8.652;2023-01-25T00:26:51;4.80;1.00
11536;DHT22;5824;49.336;8.652;2023-01-25T00:29:17;4.90;1.00
11536;DHT22;5824;49.336;8.652;2023-01-25T00:39:31;5.00;1.00
11536;DHT22;5824;49.336;8.652;2023-01-25T00:41:56;5.00;1.00
11536;DHT22;5824;49.336;8.652;2023-01-25T00:44:22;6.00;1.00
11536;DHT22;5824;49.336;8.652;2023-01-25T00:46:47;4.90;1.00
11536;DHT22;5824;49.336;8.652;2023-01-25T00:49:25;4.80;1.00
11536;DHT22;5824;49.336;8.652;2023-01-25T00:51:52;4.80;1.00
11536;DHT22;5824;49.336;8.652;2023-01-25T00:54:18;4.80;1.00
11536;DHT22;5824;49.336;8.652;2023-01-25T00:56:43;4.80;1.00
11536;DHT22;5824;49.336;8.652;2023-01-25T00:59:10;4.80;1.00
11536;DHT22;5824;49.336;8.652;2023-01-25T01:01:36;4.80;1.00
11536;DHT22;5824;49.336;8.652;2023-01-25T01:04:01;4.70;1.00
11536;DHT22;5824;49.336;8.652;2023-01-25T01:06:27;4.70;1.00
11536;DHT22;5824;49.336;8.652;2023-01-25T01:08:52;4.70;1.00
11536;DHT22;5824;49.336;8.652;2023-01-25T01:11:18;4.70;1.00
11536;DHT22;5824;49.336;8.652;2023-01-25T01:13:44;4.70;1.00
11536;DHT22;5824;49.336;8.652;2023-01-25T01:16:11;4.70;1.00
11536;DHT22;5824;49.336;8.652;2023-01-25T01:18:39;4.60;1.00
11536;DHT22;5824;49.336;8.652;2023-01-25T01:21:05;4.60;1.00
11536;DHT22;5824;49.336;8.652;2023-01-25T01:23:32;4.60;1.00
11536;DHT22;5824;49.336;8.652;2023-01-25T01:25:59;4.60;1.00
11536;DHT22;5824;49.336;8.652;2023-01-25T01:28:27;4.70;1.00
11536;DHT22;5824;49.336;8.652;2023-01-25T01:30:53;4.60;1.00
11536;DHT22;5824;49.336;8.652;2023-01-25T01:33:18;4.60;1.00
11536;DHT22;5824;49.336;8.652;2023-01-25T01:35:44;4.60;1.00
11536;DHT22;5824;49.336;8.652;2023-01-25T01:38:11;4.60;1.00
11536;DHT22;5824;49.336;8.652;2023-01-25T01:40:36;4.60;1.00
11536;DHT22;5824;49.336;8.652;2023-01-25T01:43:05;4.90;1.00
11536;DHT22;5824;49.336;8.652;2023-01-25T01:48:35;4.50;1.00
11536;DHT22;5824;49.336;8.652;2023-01-25T01:54:01;4.50;1.00
11536;DHT22;5824;49.336;8.652;2023-01-25T01:56:35;4.50;1.00
11536;DHT22;5824;49.336;8.652;2023-01-25T01:59:01;4.50;1.00
11536;DHT22;5824;49.336;8.652;2023-01-25T02:01:29;4.50;1.00
11536;DHT22;5824;49.336;8.652;2023-01-25T02:03:55;4.80;1.00
11536;DHT22;5824;49.336;8.652;2023-01-25T02:06:27;4.60;1.00
11536;DHT22;5824;49.336;8.652;2023-01-25T02:08:54;4.50;1.00
11536;DHT22;5824;49.336;8.652;2023-01-25T02:11:20;4.90;1.00
11536;DHT22;5824;49.336;8.652;2023-01-25T02:13:47;4.50;1.00
11536;DHT22;5824;49.336;8.652;2023-01-25T02:16:15;4.50;1.00
11536;DHT22;5824;49.336;8.652;2023-01-25T02:18:42;4.50;1.00
11536;DHT22;5824;49.336;8.652;2023-01-25T02:21:07;4.50;1.00
11536;DHT22;5824;49.336;8.652;2023-01-25T02:23:39;4.50;1.00
11536;DHT22;5824;49.336;8.652;2023-01-25T02:26:07;4.50;1.00
11536;DHT22;5824;49.336;8.652;2023-01-25T02:31:07;4.50;1.00
11536;DHT22;5824;49.336;8.652;2023-01-25T02:33:33;4.60;1.00
11536;DHT22;5824;49.336;8.652;2023-01-25T02:38:35;4.70;1.00
11536;DHT22;5824;49.336;8.652;2023-01-25T02:41:12;4.60;1.00
11536;DHT22;5824;49.336;8.652;2023-01-25T02:43:39;4.60;1.00
11536;DHT22;5824;49.336;8.652;2023-01-25T02:46:24;4.10;1.00
11536;DHT22;5824;49.336;8.652;2023-01-25T02:48:53;4.50;1.00
11536;DHT22;5824;49.336;8.652;2023-01-25T02:51:20;4.50;1.00
11536;DHT22;5824;49.336;8.652;2023-01-25T02:53:45;4.60;1.00
11536;DHT22;5824;49.336;8.652;2023-01-25T02:56:12;4.90;1.00
11536;DHT22;5824;49.336;8.652;2023-01-25T02:58:37;3.90;1.00
11536;DHT22;5824;49.336;8.652;2023-01-25T03:01:03;4.60;1.00
11536;DHT22;5824;49.336;8.652;2023-01-25T03:03:28;4.40;1.00
11536;DHT22;5824;49.336;8.652;2023-01-25T03:05:54;4.40;1.00
11536;DHT22;5824;49.336;8.652;2023-01-25T03:08:19;4.40;1.00
11536;DHT22;5824;49.336;8.652;2023-01-25T03:10:45;4.40;1.00
11536;DHT22;5824;49.336;8.652;2023-01-25T03:13:10;4.40;1.00
11536;DHT22;5824;49.336;8.652;2023-01-25T03:15:36;4.70;1.00
11536;DHT22;5824;49.336;8.652;2023-01-25T03:18:01;4.40;1.00
11536;DHT22;5824;49.336;8.652;2023-01-25T03:20:27;4.40;1.00
11536;DHT22;5824;49.336;8.652;2023-01-25T03:22:54;4.70;1.00
11536;DHT22;5824;49.336;8.652;2023-01-25T03:25:19;4.30;1.00
11536;DHT22;5824;49.336;8.652;2023-01-25T03:27:44;4.30;1.00
11536;DHT22;5824;49.336;8.652;2023-01-25T03:30:10;4.50;1.00
11536;DHT22;5824;49.336;8.652;2023-01-25T03:32:36;4.40;1.00
11536;DHT22;5824;49.336;8.652;2023-01-25T03:35:02;4.30;1.00
11536;DHT22;5824;49.336;8.652;2023-01-25T03:37:27;4.20;1.00
11536;DHT22;5824;49.336;8.652;2023-01-25T03:39:56;4.20;1.00
11536;DHT22;5824;49.336;8.652;2023-01-25T03:42:22;4.30;1.00
11536;DHT22;5824;49.336;8.652;2023-01-25T03:44:47;4.30;1.00
11536;DHT22;5824;49.336;8.652;2023-01-25T03:47:13;4.30;1.00
11536;DHT22;5824;49.336;8.652;2023-01-25T03:49:39;4.10;1.00
11536;DHT22;5824;49.336;8.652;2023-01-25T03:52:04;4.20;1.00
11536;DHT22;5824;49.336;8.652;2023-01-25T03:54:30;4.20;1.00
11536;DHT22;5824;49.336;8.652;2023-01-25T03:56:55;4.20;1.00
11536;DHT22;5824;49.336;8.652;2023-01-25T03:59:21;4.60;1.00
11536;DHT22;5824;49.336;8.652;2023-01-25T04:01:47;4.20;1.00
11536;DHT22;5824;49.336;8.652;2023-01-25T04:04:13;4.60;1.00
11536;DHT22;5824;49.336;8.652;2023-01-25T04:06:38;4.20;1.00
11536;DHT22;5824;49.336;8.652;2023-01-25T04:09:05;4.60;1.00
11536;DHT22;5824;49.336;8.652;2023-01-25T04:11:30;4.30;1.00
11536;DHT22;5824;49.336;8.652;2023-01-25T04:13:56;4.40;1.00
11536;DHT22;5824;49.336;8.652;2023-01-25T04:16:22;4.00;1.00
11536;DHT22;5824;49.336;8.652;2023-01-25T04:18:47;4.00;1.00
11536;DHT22;5824;49.336;8.652;2023-01-25T04:21:13;4.10;1.00
11536;DHT22;5824;49.336;8.652;2023-01-25T04:23:38;4.10;1.00
11536;DHT22;5824;49.336;8.652;2023-01-25T04:26:05;4.10;1.00
11536;DHT22;5824;49.336;8.652;2023-01-25T04:28:33;4.00;1.00
11536;DHT22;5824;49.336;8.652;2023-01-25T04:30:59;4.00;1.00
11536;DHT22;5824;49.336;8.652;2023-01-25T04:33:26;4.00;1.00
11536;DHT22;5824;49.336;8.652;2023-01-25T04:35:51;3.90;1.00
11536;DHT22;5824;49.336;8.652;2023-01-25T04:38:17;3.80;1.00
11536;DHT22;5824;49.336;8.652;2023-01-25T04:40:43;4.00;1.00
11536;DHT22;5824;49.336;8.652;2023-01-25T04:43:12;3.80;1.00
11536;DHT22;5824;49.336;8.652;2023-01-25T04:45:38;3.80;1.00
11536;DHT22;5824;49.336;8.652;2023-01-25T04:48:05;3.80;1.00
11536;DHT22;5824;49.336;8.652;2023-01-25T04:50:37;3.80;1.00
11536;DHT22;5824;49.336;8.652;2023-01-25T04:53:03;3.80;1.00
11536;DHT22;5824;49.336;8.652;2023-01-25T04:55:29;4.10;1.00
11536;DHT22;5824;49.336;8.652;2023-01-25T04:57:55;3.70;1.00
11536;DHT22;5824;49.336;8.652;2023-01-25T05:00:20;3.70;1.00
11536;DHT22;5824;49.336;8.652;2023-01-25T05:02:46;3.60;1.00
11536;DHT22;5824;49.336;8.652;2023-01-25T05:05:12;4.00;1.00
11536;DHT22;5824;49.336;8.652;2023-01-25T05:07:37;3.60;1.00
11536;DHT22;5824;49.336;8.652;2023-01-25T05:10:03;3.60;1.00
11536;DHT22;5824;49.336;8.652;2023-01-25T05:12:29;3.60;1.00
11536;DHT22;5824;49.336;8.652;2023-01-25T05:14:55;3.60;1.00
11536;DHT22;5824;49.336;8.652;2023-01-25T05:17:20;3.60;1.00
11536;DHT22;5824;49.336;8.652;2023-01-25T05:19:46;3.90;1.00
11536;DHT22;5824;49.336;8.652;2023-01-25T05:22:13;3.60;1.00
11536;DHT22;5824;49.336;8.652;2023-01-25T05:24:39;3.60;1.00
11536;DHT22;5824;49.336;8.652;2023-01-25T05:27:06;3.60;1.00
11536;DHT22;5824;49.336;8.652;2023-01-25T05:29:37;3.70;1.00
11536;DHT22;5824;49.336;8.652;2023-01-25T05:32:09;3.70;1.00
11536;DHT22;5824;49.336;8.652;2023-01-25T05:34:35;3.70;1.00
11536;DHT22;5824;49.336;8.652;2023-01-25T05:37:01;3.90;1.00
11536;DHT22;5824;49.336;8.652;2023-01-25T05:39:29;4.20;1.00
11536;DHT22;5824;49.336;8.652;2023-01-25T05:41:54;3.90;1.00
11536;DHT22;5824;49.336;8.652;2023-01-25T05:44:21;3.80;1.00
11536;DHT22;5824;49.336;8.652;2023-01-25T05:46:47;3.80;1.00
11536;DHT22;5824;49.336;8.652;2023-01-25T05:49:13;3.40;1.00
11536;DHT22;5824;49.336;8.652;2023-01-25T05:51:39;3.60;1.00
11536;DHT22;5824;49.336;8.652;2023-01-25T05:54:05;3.40;1.00
11536;DHT22;5824;49.336;8.652;2023-01-25T05:56:31;3.50;1.00
11536;DHT22;5824;49.336;8.652;2023-01-25T05:58:58;3.50;1.00
11536;DHT22;5824;49.336;8.652;2023-01-25T06:01:25;3.70;1.00
11536;DHT22;5824;49.336;8.652;2023-01-25T06:03:50;3.50;1.00
11536;DHT22;5824;49.336;8.652;2023-01-25T06:06:16;4.10;1.00
11536;DHT22;5824;49.336;8.652;2023-01-25T06:08:43;3.50;1.00
11536;DHT22;5824;49.336;8.652;2023-01-25T06:11:10;4.00;1.00
11536;DHT22;5824;49.336;8.652;2023-01-25T06:13:36;3.50;1.00
11536;DHT22;5824;49.336;8.652;2023-01-25T06:16:01;3.50;1.00
11536;DHT22;5824;49.336;8.652;2023-01-25T06:18:29;3.40;1.00
11536;DHT22;5824;49.336;8.652;2023-01-25T06:20:58;3.60;1.00
11536;DHT22;5824;49.336;8.652;2023-01-25T06:23:25;3.40;1.00
11536;DHT22;5824;49.336;8.652;2023-01-25T06:25:51;3.90;1.00
11536;DHT22;5824;49.336;8.652;2023-01-25T06:28:19;3.30;1.00
11536;DHT22;5824;49.336;8.652;2023-01-25T06:30:45;3.40;1.00
11536;DHT22;5824;49.336;8.652;2023-01-25T06:33:10;3.30;1.00
11536;DHT22;5824;49.336;8.652;2023-01-25T06:35:36;3.80;1.00
11536;DHT22;5824;49.336;8.652;2023-01-25T06:38:02;3.70;1.00
11536;DHT22;5824;49.336;8.652;2023-01-25T06:40:28;3.30;1.00
11536;DHT22;5824;49.336;8.652;2023-01-25T06:42:54;3.30;1.00
11536;DHT22;5824;49.336;8.652;2023-01-25T06:45:19;3.30;1.00
11536;DHT22;5824;49.336;8.652;2023-01-25T06:47:47;3.30;1.00
11536;DHT22;5824;49.336;8.652;2023-01-25T06:50:13;3.40;1.00
11536;DHT22;5824;49.336;8.652;2023-01-25T06:52:39;3.50;1.00
11536;DHT22;5824;49.336;8.652;2023-01-25T06:55:06;3.50;1.00
11536;DHT22;5824;49.336;8.652;2023-01-25T06:57:38;3.40;1.00
11536;DHT22;5824;49.336;8.652;2023-01-25T07:00:04;3.80;1.00
11536;DHT22;5824;49.336;8.652;2023-01-25T07:02:30;3.50;1.00
11536;DHT22;5824;49.336;8.652;2023-01-25T07:04:55;3.50;1.00
11536;DHT22;5824;49.336;8.652;2023-01-25T07:07:21;3.50;1.00
11536;DHT22;5824;49.336;8.652;2023-01-25T07:09:46;3.50;1.00
11536;DHT22;5824;49.336;8.652;2023-01-25T07:12:12;3.50;1.00
11536;DHT22;5824;49.336;8.652;2023-01-25T07:14:37;3.50;1.00
11536;DHT22;5824;49.336;8.652;2023-01-25T07:17:03;3.50;1.00
11536;DHT22;5824;49.336;8.652;2023-01-25T07:19:28;3.50;1.00
11536;DHT22;5824;49.336;8.652;2023-01-25T07:21:54;3.50;1.00
11536;DHT22;5824;49.336;8.652;2023-01-25T07:24:19;3.60;1.00
11536;DHT22;5824;49.336;8.652;2023-01-25T07:26:45;3.50;1.00
11536;DHT22;5824;49.336;8.652;2023-01-25T07:29:14;3.40;1.00
11536;DHT22;5824;49.336;8.652;2023-01-25T07:31:40;3.40;1.00
11536;DHT22;5824;49.336;8.652;2023-01-25T07:34:08;3.50;1.00
11536;DHT22;5824;49.336;8.652;2023-01-25T07:36:34;3.70;1.00
11536;DHT22;5824;49.336;8.652;2023-01-25T07:38:59;3.50;1.00
11536;DHT22;5824;49.336;8.652;2023-01-25T07:41:25;3.40;1.00
11536;DHT22;5824;49.336;8.652;2023-01-25T07:43:51;3.90;1.00
11536;DHT22;5824;49.336;8.652;2023-01-25T07:46:17;3.50;1.00
11536;DHT22;5824;49.336;8.652;2023-01-25T07:48:47;3.90;1.00
11536;DHT22;5824;49.336;8.652;2023-01-25T07:51:14;3.90;1.00
11536;DHT22;5824;49.336;8.652;2023-01-25T07:53:55;3.60;1.00
11536;DHT22;5824;49.336;8.652;2023-01-25T07:56:23;3.60;1.00
11536;DHT22;5824;49.336;8.652;2023-01-25T07:58:51;3.60;1.00
11536;DHT22;5824;49.336;8.652;2023-01-25T08:01:18;3.60;1.00
11536;DHT22;5824;49.336;8.652;2023-01-25T08:03:45;3.90;1.00
11536;DHT22;5824;49.336;8.652;2023-01-25T08:06:12;3.60;1.00
11536;DHT22;5824;49.336;8.652;2023-01-25T08:08:46;3.60;1.00
11536;DHT22;5824;49.336;8.652;2023-01-25T08:11:23;3.60;1.00
11536;DHT22;5824;49.336;8.652;2023-01-25T08:13:49;4.00;1.00
11536;DHT22;5824;49.336;8.652;2023-01-25T08:16:16;3.70;1.00
11536;DHT22;5824;49.336;8.652;2023-01-25T08:18:45;4.10;1.00
11536;DHT22;5824;49.336;8.652;2023-01-25T08:21:11;3.80;1.00
11536;DHT22;5824;49.336;8.652;2023-01-25T08:23:37;3.90;1.00
11536;DHT22;5824;49.336;8.652;2023-01-25T08:26:07;4.00;1.00
11536;DHT22;5824;49.336;8.652;2023-01-25T08:28:33;4.50;1.00
11536;DHT22;5824;49.336;8.652;2023-01-25T08:31:06;3.90;1.00
11536;DHT22;5824;49.336;8.652;2023-01-25T08:33:32;3.90;1.00
11536;DHT22;5824;49.336;8.652;2023-01-25T08:35:58;4.00;1.00
11536;DHT22;5824;49.336;8.652;2023-01-25T08:38:24;4.00;1.00
11536;DHT22;5824;49.336;8.652;2023-01-25T08:40:49;4.00;1.00
11536;DHT22;5824;49.336;8.652;2023-01-25T08:43:15;4.00;1.00
11536;DHT22;5824;49.336;8.652;2023-01-25T08:45:41;4.20;1.00
11536;DHT22;5824;49.336;8.652;2023-01-25T08:48:06;4.10;1.00
11536;DHT22;5824;49.336;8.652;2023-01-25T08:50:32;4.10;1.00
11536;DHT22;5824;49.336;8.652;2023-01-25T08:52:57;4.00;1.00
11536;DHT22;5824;49.336;8.652;2023-01-25T08:55:23;4.10;1.00
11536;DHT22;5824;49.336;8.652;2023-01-25T08:57:48;4.10;1.00
11536;DHT22;5824;49.336;8.652;2023-01-25T09:00:14;4.40;1.00
11536;DHT22;5824;49.336;8.652;2023-01-25T09:02:40;4.00;1.00
11536;DHT22;5824;49.336;8.652;2023-01-25T09:05:05;4.10;1.00
11536;DHT22;5824;49.336;8.652;2023-01-25T09:07:31;4.10;1.00
11536;DHT22;5824;49.336;8.652;2023-01-25T09:10:02;4.20;1.00
11536;DHT22;5824;49.336;8.652;2023-01-25T09:12:27;4.20;1.00
11536;DHT22;5824;49.336;8.652;2023-01-25T09:14:53;4.10;1.00
11536;DHT22;5824;49.336;8.652;2023-01-25T09:17:18;4.60;1.00
11536;DHT22;5824;49.336;8.652;2023-01-25T09:19:44;4.20;1.00
11536;DHT22;5824;49.336;8.652;2023-01-25T09:22:11;4.60;1.00
11536;DHT22;5824;49.336;8.652;2023-01-25T09:24:36;4.30;1.00
11536;DHT22;5824;49.336;8.652;2023-01-25T09:27:02;4.70;1.00
11536;DHT22;5824;49.336;8.652;2023-01-25T09:29:27;4.10;1.00
11536;DHT22;5824;49.336;8.652;2023-01-25T09:31:53;4.10;1.00
11536;DHT22;5824;49.336;8.652;2023-01-25T09:34:19;4.10;1.00
11536;DHT22;5824;49.336;8.652;2023-01-25T09:36:46;4.20;1.00
11536;DHT22;5824;49.336;8.652;2023-01-25T09:39:12;4.80;1.00
11536;DHT22;5824;49.336;8.652;2023-01-25T09:42:06;4.30;1.00
11536;DHT22;5824;49.336;8.652;2023-01-25T09:47:44;4.40;1.00
11536;DHT22;5824;49.336;8.652;2023-01-25T09:53:35;4.40;1.00
11536;DHT22;5824;49.336;8.652;2023-01-25T09:56:25;4.30;1.00
11536;DHT22;5824;49.336;8.652;2023-01-25T09:58:58;4.40;1.00
11536;DHT22;5824;49.336;8.652;2023-01-25T10:01:43;4.40;1.00
11536;DHT22;5824;49.336;8.652;2023-01-25T10:04:18;4.50;1.00
11536;DHT22;5824;49.336;8.652;2023-01-25T10:06:55;4.50;1.00
11536;DHT22;5824;49.336;8.652;2023-01-25T10:09:50;4.60;1.00
11536;DHT22;5824;49.336;8.652;2023-01-25T10:12:24;4.50;1.00
11536;DHT22;5824;49.336;8.652;2023-01-25T10:14:51;4.50;1.00
11536;DHT22;5824;49.336;8.652;2023-01-25T10:17:37;5.10;1.00
11536;DHT22;5824;49.336;8.652;2023-01-25T10:21:00;4.60;1.00
11536;DHT22;5824;49.336;8.652;2023-01-25T10:26:15;4.50;1.00
11536;DHT22;5824;49.336;8.652;2023-01-25T10:31:37;4.60;1.00
11536;DHT22;5824;49.336;8.652;2023-01-25T10:34:17;4.60;1.00
11536;DHT22;5824;49.336;8.652;2023-01-25T10:36:49;4.60;1.00
11536;DHT22;5824;49.336;8.652;2023-01-25T10:39:17;4.60;1.00
11536;DHT22;5824;49.336;8.652;2023-01-25T10:41:48;4.60;1.00
11536;DHT22;5824;49.336;8.652;2023-01-25T10:44:15;4.60;1.00
11536;DHT22;5824;49.336;8.652;2023-01-25T10:47:41;4.60;1.00
11536;DHT22;5824;49.336;8.652;2023-01-25T10:49:47;4.60;1.00
11536;DHT22;5824;49.336;8.652;2023-01-25T10:52:27;4.60;1.00
11536;DHT22;5824;49.336;8.652;2023-01-25T10:57:34;4.60;1.00
11536;DHT22;5824;49.336;8.652;2023-01-25T11:00:06;4.90;1.00
11536;DHT22;5824;49.336;8.652;2023-01-25T11:02:43;4.70;1.00
11536;DHT22;5824;49.336;8.652;2023-01-25T11:05:26;4.80;1.00
11536;DHT22;5824;49.336;8.652;2023-01-25T11:07:51;4.80;1.00
11536;DHT22;5824;49.336;8.652;2023-01-25T11:10:32;4.90;1.00
11536;DHT22;5824;49.336;8.652;2023-01-25T11:18:24;5.00;1.00
11536;DHT22;5824;49.336;8.652;2023-01-25T11:21:13;5.10;1.00
11536;DHT22;5824;49.336;8.652;2023-01-25T11:26:36;5.00;1.00
11536;DHT22;5824;49.336;8.652;2023-01-25T11:29:16;5.40;1.00
11536;DHT22;5824;49.336;8.652;2023-01-25T11:31:46;5.10;1.00
11536;DHT22;5824;49.336;8.652;2023-01-25T11:34:17;5.10;1.00
11536;DHT22;5824;49.336;8.652;2023-01-25T11:39:56;4.90;1.00
11536;DHT22;5824;49.336;8.652;2023-01-25T11:42:29;4.80;1.00
11536;DHT22;5824;49.336;8.652;2023-01-25T11:45:24;4.80;1.00
11536;DHT22;5824;49.336;8.652;2023-01-25T11:54:00;4.70;1.00
11536;DHT22;5824;49.336;8.652;2023-01-25T12:02:43;4.80;1.00
11536;DHT22;5824;49.336;8.652;2023-01-25T12:07:55;4.80;1.00
11536;DHT22;5824;49.336;8.652;2023-01-25T12:13:56;4.90;1.00
11536;DHT22;5824;49.336;8.652;2023-01-25T12:24:40;4.80;1.00
11536;DHT22;5824;49.336;8.652;2023-01-25T12:29:48;4.80;1.00
11536;DHT22;5824;49.336;8.652;2023-01-25T12:32:37;4.80;1.00
11536;DHT22;5824;49.336;8.652;2023-01-25T12:35:24;4.60;1.00
11536;DHT22;5824;49.336;8.652;2023-01-25T12:37:56;4.50;1.00
11536;DHT22;5824;49.336;8.652;2023-01-25T12:42:57;4.40;1.00
11536;DHT22;5824;49.336;8.652;2023-01-25T12:45:27;4.50;1.00
11536;DHT22;5824;49.336;8.652;2023-01-25T12:48:42;4.90;1.00
11536;DHT22;5824;49.336;8.652;2023-01-25T12:50:54;4.30;1.00
11536;DHT22;5824;49.336;8.652;2023-01-25T12:55:49;4.40;1.00
11536;DHT22;5824;49.336;8.652;2023-01-25T12:58:43;4.40;1.00
11536;DHT22;5824;49.336;8.652;2023-01-25T13:01:34;4.40;1.00
11536;DHT22;5824;49.336;8.652;2023-01-25T13:12:10;4.30;1.00
11536;DHT22;5824;49.336;8.652;2023-01-25T13:14:37;4.60;1.00
11536;DHT22;5824;49.336;8.652;2023-01-25T13:19:52;4.30;1.00
11536;DHT22;5824;49.336;8.652;2023-01-25T13:27:42;4.30;1.00
11536;DHT22;5824;49.336;8.652;2023-01-25T13:30:30;4.30;1.00
11536;DHT22;5824;49.336;8.652;2023-01-25T13:33:01;4.20;1.00
11536;DHT22;5824;49.336;8.652;2023-01-25T13:35:38;4.30;1.00
11536;DHT22;5824;49.336;8.652;2023-01-25T13:40:41;4.30;1.00
11536;DHT22;5824;49.336;8.652;2023-01-25T13:43:20;4.30;1.00
11536;DHT22;5824;49.336;8.652;2023-01-25T13:45:49;4.40;1.00
11536;DHT22;5824;49.336;8.652;2023-01-25T13:48:19;4.70;1.00
11536;DHT22;5824;49.336;8.652;2023-01-25T13:50:49;4.40;1.00
11536;DHT22;5824;49.336;8.652;2023-01-25T13:55:46;4.20;1.00
11536;DHT22;5824;49.336;8.652;2023-01-25T13:58:19;4.20;1.00
11536;DHT22;5824;49.336;8.652;2023-01-25T14:01:12;4.20;1.00
11536;DHT22;5824;49.336;8.652;2023-01-25T14:06:17;4.20;1.00
11536;DHT22;5824;49.336;8.652;2023-01-25T14:08:45;4.30;1.00
11536;DHT22;5824;49.336;8.652;2023-01-25T14:11:21;4.30;1.00
11536;DHT22;5824;49.336;8.652;2023-01-25T14:14:02;4.50;1.00
11536;DHT22;5824;49.336;8.652;2023-01-25T14:16:40;4.30;1.00
11536;DHT22;5824;49.336;8.652;2023-01-25T14:19:23;4.20;1.00
11536;DHT22;5824;49.336;8.652;2023-01-25T14:21:49;4.50;1.00
11536;DHT22;5824;49.336;8.652;2023-01-25T14:24:18;4.60;1.00
11536;DHT22;5824;49.336;8.652;2023-01-25T14:26:44;4.10;1.00
11536;DHT22;5824;49.336;8.652;2023-01-25T14:29:17;4.10;1.00
11536;DHT22;5824;49.336;8.652;2023-01-25T14:31:48;4.60;1.00
11536;DHT22;5824;49.336;8.652;2023-01-25T14:34:19;4.10;1.00
11536;DHT22;5824;49.336;8.652;2023-01-25T14:36:45;4.40;1.00
11536;DHT22;5824;49.336;8.652;2023-01-25T14:39:29;4.20;1.00
11536;DHT22;5824;49.336;8.652;2023-01-25T14:41:55;4.20;1.00
11536;DHT22;5824;49.336;8.652;2023-01-25T14:44:21;4.60;1.00
11536;DHT22;5824;49.336;8.652;2023-01-25T14:46:47;4.70;1.00
11536;DHT22;5824;49.336;8.652;2023-01-25T14:49:22;4.20;1.00
11536;DHT22;5824;49.336;8.652;2023-01-25T14:54:35;4.10;1.00
11536;DHT22;5824;49.336;8.652;2023-01-25T14:57:03;4.20;1.00
11536;DHT22;5824;49.336;8.652;2023-01-25T14:59:36;4.10;1.00
11536;DHT22;5824;49.336;8.652;2023-01-25T15:02:33;4.10;1.00
11536;DHT22;5824;49.336;8.652;2023-01-25T15:05:26;4.00;1.00
11536;DHT22;5824;49.336;8.652;2023-01-25T15:08:13;4.00;1.00
11536;DHT22;5824;49.336;8.652;2023-01-25T15:10:53;4.00;1.00
11536;DHT22;5824;49.336;8.652;2023-01-25T15:13:24;4.10;1.00
11536;DHT22;5824;49.336;8.652;2023-01-25T15:15:55;3.90;1.00
11536;DHT22;5824;49.336;8.652;2023-01-25T15:21:17;3.90;1.00
11536;DHT22;5824;49.336;8.652;2023-01-25T15:23:47;3.90;1.00
11536;DHT22;5824;49.336;8.652;2023-01-25T15:28:53;3.90;1.00
11536;DHT22;5824;49.336;8.652;2023-01-25T15:31:29;3.90;1.00
11536;DHT22;5824;49.336;8.652;2023-01-25T15:33:55;3.90;1.00
11536;DHT22;5824;49.336;8.652;2023-01-25T15:36:21;3.90;1.00
11536;DHT22;5824;49.336;8.652;2023-01-25T15:38:47;3.80;1.00
11536;DHT22;5824;49.336;8.652;2023-01-25T15:41:13;3.80;1.00
11536;DHT22;5824;49.336;8.652;2023-01-25T15:43:39;3.80;1.00
11536;DHT22;5824;49.336;8.652;2023-01-25T15:46:10;3.70;1.00
11536;DHT22;5824;49.336;8.652;2023-01-25T15:48:42;3.70;1.00
11536;DHT22;5824;49.336;8.652;2023-01-25T15:51:08;3.70;1.00
11536;DHT22;5824;49.336;8.652;2023-01-25T15:53:34;3.60;1.00
11536;DHT22;5824;49.336;8.652;2023-01-25T15:56:03;3.60;1.00
11536;DHT22;5824;49.336;8.652;2023-01-25T15:58:33;3.60;1.00
11536;DHT22;5824;49.336;8.652;2023-01-25T16:00:58;3.60;1.00
11536;DHT22;5824;49.336;8.652;2023-01-25T16:03:25;3.60;1.00
11536;DHT22;5824;49.336;8.652;2023-01-25T16:06:03;3.60;1.00
11536;DHT22;5824;49.336;8.652;2023-01-25T16:08:29;3.60;1.00
11536;DHT22;5824;49.336;8.652;2023-01-25T16:10:55;3.70;1.00
11536;DHT22;5824;49.336;8.652;2023-01-25T16:13:21;3.70;1.00
11536;DHT22;5824;49.336;8.652;2023-01-25T16:15:51;3.70;1.00
11536;DHT22;5824;49.336;8.652;2023-01-25T16:18:18;3.60;1.00
11536;DHT22;5824;49.336;8.652;2023-01-25T16:20:43;3.60;1.00
11536;DHT22;5824;49.336;8.652;2023-01-25T16:23:10;3.60;1.00
11536;DHT22;5824;49.336;8.652;2023-01-25T16:25:37;3.60;1.00
11536;DHT22;5824;49.336;8.652;2023-01-25T16:28:03;3.70;1.00
11536;DHT22;5824;49.336;8.652;2023-01-25T16:30:29;3.80;1.00
11536;DHT22;5824;49.336;8.652;2023-01-25T16:32:56;3.80;1.00
11536;DHT22;5824;49.336;8.652;2023-01-25T16:35:22;3.90;1.00
11536;DHT22;5824;49.336;8.652;2023-01-25T16:37:48;3.90;1.00
11536;DHT22;5824;49.336;8.652;2023-01-25T16:40:29;4.40;1.00
11536;DHT22;5824;49.336;8.652;2023-01-25T16:42:56;3.80;1.00
11536;DHT22;5824;49.336;8.652;2023-01-25T16:45:22;3.70;1.00
11536;DHT22;5824;49.336;8.652;2023-01-25T16:47:51;3.60;1.00
11536;DHT22;5824;49.336;8.652;2023-01-25T16:50:19;3.60;1.00
11536;DHT22;5824;49.336;8.652;2023-01-25T16:52:44;3.60;1.00
11536;DHT22;5824;49.336;8.652;2023-01-25T16:55:13;3.70;1.00
11536;DHT22;5824;49.336;8.652;2023-01-25T16:57:40;3.70;1.00
11536;DHT22;5824;49.336;8.652;2023-01-25T17:00:09;3.80;1.00
11536;DHT22;5824;49.336;8.652;2023-01-25T17:02:36;3.80;1.00
11536;DHT22;5824;49.336;8.652;2023-01-25T17:05:03;3.90;1.00
11536;DHT22;5824;49.336;8.652;2023-01-25T17:07:28;3.90;1.00
11536;DHT22;5824;49.336;8.652;2023-01-25T17:09:54;4.50;1.00
11536;DHT22;5824;49.336;8.652;2023-01-25T17:12:19;3.90;1.00
11536;DHT22;5824;49.336;8.652;2023-01-25T17:14:45;3.80;1.00
11536;DHT22;5824;49.336;8.652;2023-01-25T17:17:10;3.80;1.00
11536;DHT22;5824;49.336;8.652;2023-01-25T17:19:36;3.70;1.00
11536;DHT22;5824;49.336;8.652;2023-01-25T17:22:01;3.80;1.00
11536;DHT22;5824;49.336;8.652;2023-01-25T17:24:27;3.80;1.00
11536;DHT22;5824;49.336;8.652;2023-01-25T17:26:56;3.80;1.00
11536;DHT22;5824;49.336;8.652;2023-01-25T17:29:22;3.90;1.00
11536;DHT22;5824;49.336;8.652;2023-01-25T17:31:49;3.80;1.00
11536;DHT22;5824;49.336;8.652;2023-01-25T17:34:16;3.90;1.00
11536;DHT22;5824;49.336;8.652;2023-01-25T17:36:43;3.90;1.00
11536;DHT22;5824;49.336;8.652;2023-01-25T17:39:10;3.90;1.00
11536;DHT22;5824;49.336;8.652;2023-01-25T17:41:36;3.90;1.00
11536;DHT22;5824;49.336;8.652;2023-01-25T17:44:02;3.90;1.00
11536;DHT22;5824;49.336;8.652;2023-01-25T17:46:29;3.90;1.00
11536;DHT22;5824;49.336;8.652;2023-01-25T17:48:57;3.80;1.00
11536;DHT22;5824;49.336;8.652;2023-01-25T17:51:24;3.80;1.00
11536;DHT22;5824;49.336;8.652;2023-01-25T17:53:51;3.80;1.00
11536;DHT22;5824;49.336;8.652;2023-01-25T17:56:16;3.80;1.00
11536;DHT22;5824;49.336;8.652;2023-01-25T17:58:44;3.80;1.00
11536;DHT22;5824;49.336;8.652;2023-01-25T18:01:14;3.80;1.00
11536;DHT22;5824;49.336;8.652;2023-01-25T18:03:41;3.80;1.00
11536;DHT22;5824;49.336;8.652;2023-01-25T18:06:09;3.90;1.00
11536;DHT22;5824;49.336;8.652;2023-01-25T18:08:42;3.90;1.00
11536;DHT22;5824;49.336;8.652;2023-01-25T18:11:10;3.90;1.00
11536;DHT22;5824;49.336;8.652;2023-01-25T18:13:40;3.90;1.00
11536;DHT22;5824;49.336;8.652;2023-01-25T18:16:07;3.90;1.00
11536;DHT22;5824;49.336;8.652;2023-01-25T18:18:34;3.80;1.00